sensor_id;sensor_type;location;lat;lon;timestamp;temperature;humidity
6810;DHT22;3443;48.812;9.112;2023-02-13T00:01:55;1.20;99.90
6810;DHT22;3443;48.812;9.112;2023-02-13T00:04:21;1.10;99.90
6810;DHT22;3443;48.812;9.112;2023-02-13T00:06:47;1.10;99.90
6810;DHT22;3443;48.812;9.112;2023-02-13T00:09:13;1.10;99.90
6810;DHT22;3443;48.812;9.112;2023-02-13T00:11:38;1.10;99.90
6810;DHT22;3443;48.812;9.112;2023-02-13T00:14:04;1.10;99.90
6810;DHT22;3443;48.812;9.112;2023-02-13T00:16:30;1.00;99.90
6810;DHT22;3443;48.812;9.112;2023-02-13T00:18:55;1.10;99.90
6810;DHT22;3443;48.812;9.112;2023-02-13T00:21:21;1.10;99.90
6810;DHT22;3443;48.812;9.112;2023-02-13T00:23:46;1.10;99.90
6810;DHT22;3443;48.812;9.112;2023-02-13T00:26:14;1.00;99.90
6810;DHT22;3443;48.812;9.112;2023-02-13T00:28:40;1.00;99.90
6810;DHT22;3443;48.812;9.112;2023-02-13T00:31:11;1.00;99.90
6810;DHT22;3443;48.812;9.112;2023-02-13T00:33:37;1.00;99.90
6810;DHT22;3443;48.812;9.112;2023-02-13T00:36:11;1.00;99.90
6810;DHT22;3443;48.812;9.112;2023-02-13T00:38:38;0.90;99.90
6810;DHT22;3443;48.812;9.112;2023-02-13T00:41:05;1.10;99.90
6810;DHT22;3443;48.812;9.112;2023-02-13T00:43:31;1.00;99.90
6810;DHT22;3443;48.812;9.112;2023-02-13T00:45:57;0.90;99.90
6810;DHT22;3443;48.812;9.112;2023-02-13T00:48:24;1.00;99.90
6810;DHT22;3443;48.812;9.112;2023-02-13T00:50:49;1.00;99.90
6810;DHT22;3443;48.812;9.112;2023-02-13T00:53:17;0.90;99.90
6810;DHT22;3443;48.812;9.112;2023-02-13T00:55:44;0.90;99.90
6810;DHT22;3443;48.812;9.112;2023-02-13T00:58:10;0.80;99.90
6810;DHT22;3443;48.812;9.112;2023-02-13T01:00:37;0.80;99.90
6810;DHT22;3443;48.812;9.112;2023-02-13T01:03:02;0.80;99.90
6810;DHT22;3443;48.812;9.112;2023-02-13T01:05:28;0.80;99.90
6810;DHT22;3443;48.812;9.112;2023-02-13T01:07:54;0.70;99.90
6810;DHT22;3443;48.812;9.112;2023-02-13T01:10:20;0.80;99.90
6810;DHT22;3443;48.812;9.112;2023-02-13T01:12:45;0.80;99.90
6810;DHT22;3443;48.812;9.112;2023-02-13T01:15:11;0.70;99.90
6810;DHT22;3443;48.812;9.112;2023-02-13T01:17:37;0.70;99.90
6810;DHT22;3443;48.812;9.112;2023-02-13T01:20:09;0.70;99.90
6810;DHT22;3443;48.812;9.112;2023-02-13T01:22:35;0.70;99.90
6810;DHT22;3443;48.812;9.112;2023-02-13T01:25:01;0.70;99.90
6810;DHT22;3443;48.812;9.112;2023-02-13T01:27:27;0.70;99.90
6810;DHT22;3443;48.812;9.112;2023-02-13T01:29:53;0.60;99.90
6810;DHT22;3443;48.812;9.112;2023-02-13T01:32:19;0.70;99.90
6810;DHT22;3443;48.812;9.112;2023-02-13T01:34:44;0.60;99.90
6810;DHT22;3443;48.812;9.112;2023-02-13T01:37:10;0.60;99.90
6810;DHT22;3443;48.812;9.112;2023-02-13T01:39:36;0.60;99.90
6810;DHT22;3443;48.812;9.112;2023-02-13T01:42:01;0.60;99.90
6810;DHT22;3443;48.812;9.112;2023-02-13T01:44:48;0.60;99.90
6810;DHT22;3443;48.812;9.112;2023-02-13T01:47:19;0.50;99.90
6810;DHT22;3443;48.812;9.112;2023-02-13T01:49:46;0.50;99.90
6810;DHT22;3443;48.812;9.112;2023-02-13T01:52:13;0.40;99.90
6810;DHT22;3443;48.812;9.112;2023-02-13T01:54:41;0.50;99.90
6810;DHT22;3443;48.812;9.112;2023-02-13T01:57:17;0.50;99.90
6810;DHT22;3443;48.812;9.112;2023-02-13T01:59:55;0.40;99.90
6810;DHT22;3443;48.812;9.112;2023-02-13T02:02:22;0.40;99.90
6810;DHT22;3443;48.812;9.112;2023-02-13T02:04:48;0.40;99.90
6810;DHT22;3443;48.812;9.112;2023-02-13T02:07:20;0.40;99.90
6810;DHT22;3443;48.812;9.112;2023-02-13T02:09:48;0.50;99.90
6810;DHT22;3443;48.812;9.112;2023-02-13T02:12:39;0.50;99.90
6810;DHT22;3443;48.812;9.112;2023-02-13T02:15:07;0.50;99.90
6810;DHT22;3443;48.812;9.112;2023-02-13T02:17:33;0.40;99.90
6810;DHT22;3443;48.812;9.112;2023-02-13T02:39:39;0.20;99.90
6810;DHT22;3443;48.812;9.112;2023-02-13T02:45:16;0.20;99.90
6810;DHT22;3443;48.812;9.112;2023-02-13T02:48:06;0.20;99.90
6810;DHT22;3443;48.812;9.112;2023-02-13T02:53:38;0.20;99.90
6810;DHT22;3443;48.812;9.112;2023-02-13T02:56:16;0.20;99.90
6810;DHT22;3443;48.812;9.112;2023-02-13T02:58:46;0.20;99.90
6810;DHT22;3443;48.812;9.112;2023-02-13T03:01:33;0.10;99.90
6810;DHT22;3443;48.812;9.112;2023-02-13T03:04:32;0.10;99.90
6810;DHT22;3443;48.812;9.112;2023-02-13T03:07:19;0.10;99.90
6810;DHT22;3443;48.812;9.112;2023-02-13T03:09:48;0.10;99.90
6810;DHT22;3443;48.812;9.112;2023-02-13T03:12:51;0.10;99.90
6810;DHT22;3443;48.812;9.112;2023-02-13T03:15:39;0.00;99.90
6810;DHT22;3443;48.812;9.112;2023-02-13T03:18:27;0.00;99.90
6810;DHT22;3443;48.812;9.112;2023-02-13T03:21:18;0.00;99.90
6810;DHT22;3443;48.812;9.112;2023-02-13T03:24:12;0.00;99.90
6810;DHT22;3443;48.812;9.112;2023-02-13T03:29:20;-0.10;99.90
6810;DHT22;3443;48.812;9.112;2023-02-13T03:32:30;0.00;99.90
6810;DHT22;3443;48.812;9.112;2023-02-13T03:38:17;-0.10;99.90
6810;DHT22;3443;48.812;9.112;2023-02-13T03:40:51;0.00;99.90
6810;DHT22;3443;48.812;9.112;2023-02-13T03:43:44;-0.10;99.90
6810;DHT22;3443;48.812;9.112;2023-02-13T03:46:14;-0.10;99.90
6810;DHT22;3443;48.812;9.112;2023-02-13T03:48:41;-0.20;99.90
6810;DHT22;3443;48.812;9.112;2023-02-13T03:52:05;-0.10;99.90
6810;DHT22;3443;48.812;9.112;2023-02-13T03:54:29;-0.20;99.90
6810;DHT22;3443;48.812;9.112;2023-02-13T03:57:18;-0.20;99.90
6810;DHT22;3443;48.812;9.112;2023-02-13T04:00:06;-0.20;99.90
6810;DHT22;3443;48.812;9.112;2023-02-13T04:02:39;-0.20;99.90
6810;DHT22;3443;48.812;9.112;2023-02-13T04:05:14;-0.20;99.90
6810;DHT22;3443;48.812;9.112;2023-02-13T04:07:41;-0.20;99.90
6810;DHT22;3443;48.812;9.112;2023-02-13T04:10:13;-0.20;99.90
6810;DHT22;3443;48.812;9.112;2023-02-13T04:15:37;-0.30;99.90
6810;DHT22;3443;48.812;9.112;2023-02-13T04:18:15;-0.20;99.90
6810;DHT22;3443;48.812;9.112;2023-02-13T04:20:42;-0.30;99.90
6810;DHT22;3443;48.812;9.112;2023-02-13T04:23:09;-0.30;99.90
6810;DHT22;3443;48.812;9.112;2023-02-13T04:25:38;-0.30;99.90
6810;DHT22;3443;48.812;9.112;2023-02-13T04:28:04;-0.40;99.90
6810;DHT22;3443;48.812;9.112;2023-02-13T04:30:30;-0.40;99.90
6810;DHT22;3443;48.812;9.112;2023-02-13T04:32:56;-0.40;99.90
6810;DHT22;3443;48.812;9.112;2023-02-13T04:35:21;-0.40;99.90
6810;DHT22;3443;48.812;9.112;2023-02-13T04:37:47;-0.40;99.90
6810;DHT22;3443;48.812;9.112;2023-02-13T04:40:12;-0.40;99.90
6810;DHT22;3443;48.812;9.112;2023-02-13T04:42:38;-0.40;99.90
6810;DHT22;3443;48.812;9.112;2023-02-13T04:45:04;-0.40;99.90
6810;DHT22;3443;48.812;9.112;2023-02-13T04:47:29;-0.40;99.90
6810;DHT22;3443;48.812;9.112;2023-02-13T04:49:55;-0.50;99.90
6810;DHT22;3443;48.812;9.112;2023-02-13T04:52:20;-0.40;99.90
6810;DHT22;3443;48.812;9.112;2023-02-13T04:54:46;-0.40;99.90
6810;DHT22;3443;48.812;9.112;2023-02-13T04:57:12;-0.50;99.90
6810;DHT22;3443;48.812;9.112;2023-02-13T04:59:37;-0.50;99.90
6810;DHT22;3443;48.812;9.112;2023-02-13T05:02:03;-0.50;99.90
6810;DHT22;3443;48.812;9.112;2023-02-13T05:04:28;-0.60;99.90
6810;DHT22;3443;48.812;9.112;2023-02-13T05:06:54;-0.60;99.90
6810;DHT22;3443;48.812;9.112;2023-02-13T05:09:19;-0.60;99.90
6810;DHT22;3443;48.812;9.112;2023-02-13T05:11:45;-0.60;99.90
6810;DHT22;3443;48.812;9.112;2023-02-13T05:14:11;-0.60;99.90
6810;DHT22;3443;48.812;9.112;2023-02-13T05:16:37;-0.50;99.90
6810;DHT22;3443;48.812;9.112;2023-02-13T05:19:03;-0.50;99.90
6810;DHT22;3443;48.812;9.112;2023-02-13T05:21:28;-0.50;99.90
6810;DHT22;3443;48.812;9.112;2023-02-13T05:24:13;-0.60;99.90
6810;DHT22;3443;48.812;9.112;2023-02-13T05:26:38;-0.60;99.90
6810;DHT22;3443;48.812;9.112;2023-02-13T05:29:04;-0.60;99.90
6810;DHT22;3443;48.812;9.112;2023-02-13T05:31:45;-0.60;99.90
6810;DHT22;3443;48.812;9.112;2023-02-13T05:34:11;-0.60;99.90
6810;DHT22;3443;48.812;9.112;2023-02-13T05:36:36;-0.70;99.90
6810;DHT22;3443;48.812;9.112;2023-02-13T05:39:02;-0.50;99.90
6810;DHT22;3443;48.812;9.112;2023-02-13T05:41:28;-0.60;99.90
6810;DHT22;3443;48.812;9.112;2023-02-13T05:43:54;-0.60;99.90
6810;DHT22;3443;48.812;9.112;2023-02-13T05:46:19;-0.70;99.90
6810;DHT22;3443;48.812;9.112;2023-02-13T05:48:45;-0.70;99.90
6810;DHT22;3443;48.812;9.112;2023-02-13T05:51:10;-0.70;99.90
6810;DHT22;3443;48.812;9.112;2023-02-13T05:53:36;-0.70;99.90
6810;DHT22;3443;48.812;9.112;2023-02-13T05:56:05;-0.70;99.90
6810;DHT22;3443;48.812;9.112;2023-02-13T05:58:32;-0.70;99.90
6810;DHT22;3443;48.812;9.112;2023-02-13T06:00:58;-0.70;99.90
6810;DHT22;3443;48.812;9.112;2023-02-13T06:03:25;-0.80;99.90
6810;DHT22;3443;48.812;9.112;2023-02-13T06:05:52;-0.80;99.90
6810;DHT22;3443;48.812;9.112;2023-02-13T06:08:18;-0.80;99.90
6810;DHT22;3443;48.812;9.112;2023-02-13T06:10:45;-0.80;99.90
6810;DHT22;3443;48.812;9.112;2023-02-13T06:13:11;-0.80;99.90
6810;DHT22;3443;48.812;9.112;2023-02-13T06:15:36;-0.80;99.90
6810;DHT22;3443;48.812;9.112;2023-02-13T06:18:02;-0.90;99.90
6810;DHT22;3443;48.812;9.112;2023-02-13T06:20:28;-0.80;99.90
6810;DHT22;3443;48.812;9.112;2023-02-13T06:22:53;-0.80;99.90
6810;DHT22;3443;48.812;9.112;2023-02-13T06:25:19;-0.80;99.90
6810;DHT22;3443;48.812;9.112;2023-02-13T06:27:45;-0.80;99.90
6810;DHT22;3443;48.812;9.112;2023-02-13T06:30:12;-0.80;99.90
6810;DHT22;3443;48.812;9.112;2023-02-13T06:32:37;-0.80;99.90
6810;DHT22;3443;48.812;9.112;2023-02-13T06:35:03;-0.80;99.90
6810;DHT22;3443;48.812;9.112;2023-02-13T06:37:29;-0.80;99.90
6810;DHT22;3443;48.812;9.112;2023-02-13T06:39:54;-0.80;99.90
6810;DHT22;3443;48.812;9.112;2023-02-13T06:42:20;-0.80;99.90
6810;DHT22;3443;48.812;9.112;2023-02-13T06:44:46;-0.90;99.90
6810;DHT22;3443;48.812;9.112;2023-02-13T06:47:11;-0.90;99.90
6810;DHT22;3443;48.812;9.112;2023-02-13T06:49:37;-0.90;99.90
6810;DHT22;3443;48.812;9.112;2023-02-13T06:52:03;-0.90;99.90
6810;DHT22;3443;48.812;9.112;2023-02-13T06:54:28;-0.90;99.90
6810;DHT22;3443;48.812;9.112;2023-02-13T06:56:54;-0.90;99.90
6810;DHT22;3443;48.812;9.112;2023-02-13T06:59:20;-0.80;99.90
6810;DHT22;3443;48.812;9.112;2023-02-13T07:01:45;-0.90;99.90
6810;DHT22;3443;48.812;9.112;2023-02-13T07:04:11;-0.80;99.90
6810;DHT22;3443;48.812;9.112;2023-02-13T07:06:36;-0.80;99.90
6810;DHT22;3443;48.812;9.112;2023-02-13T07:09:02;-0.80;99.90
6810;DHT22;3443;48.812;9.112;2023-02-13T07:11:28;-0.60;99.90
6810;DHT22;3443;48.812;9.112;2023-02-13T07:13:54;-0.70;99.90
6810;DHT22;3443;48.812;9.112;2023-02-13T07:16:19;-0.60;99.90
6810;DHT22;3443;48.812;9.112;2023-02-13T07:18:45;-0.60;99.90
6810;DHT22;3443;48.812;9.112;2023-02-13T07:21:10;-0.60;99.90
6810;DHT22;3443;48.812;9.112;2023-02-13T07:23:36;-0.60;99.90
6810;DHT22;3443;48.812;9.112;2023-02-13T07:26:02;-0.60;99.90
6810;DHT22;3443;48.812;9.112;2023-02-13T07:28:28;-0.60;99.90
6810;DHT22;3443;48.812;9.112;2023-02-13T07:30:54;-0.60;99.90
6810;DHT22;3443;48.812;9.112;2023-02-13T07:33:20;-0.50;99.90
6810;DHT22;3443;48.812;9.112;2023-02-13T07:35:47;-0.50;99.90
6810;DHT22;3443;48.812;9.112;2023-02-13T07:38:13;-0.40;99.90
6810;DHT22;3443;48.812;9.112;2023-02-13T07:40:39;-0.40;99.90
6810;DHT22;3443;48.812;9.112;2023-02-13T07:43:05;-0.40;99.90
6810;DHT22;3443;48.812;9.112;2023-02-13T07:45:31;-0.40;99.90
6810;DHT22;3443;48.812;9.112;2023-02-13T07:47:56;-0.30;99.90
6810;DHT22;3443;48.812;9.112;2023-02-13T07:50:22;-0.30;99.90
6810;DHT22;3443;48.812;9.112;2023-02-13T07:52:55;-0.20;99.90
6810;DHT22;3443;48.812;9.112;2023-02-13T07:55:22;-0.20;99.90
6810;DHT22;3443;48.812;9.112;2023-02-13T07:57:49;-0.10;99.90
6810;DHT22;3443;48.812;9.112;2023-02-13T08:00:15;0.00;99.90
6810;DHT22;3443;48.812;9.112;2023-02-13T08:02:41;0.10;99.90
6810;DHT22;3443;48.812;9.112;2023-02-13T08:05:07;0.30;99.90
6810;DHT22;3443;48.812;9.112;2023-02-13T08:07:33;0.40;99.90
6810;DHT22;3443;48.812;9.112;2023-02-13T08:09:59;0.60;99.90
6810;DHT22;3443;48.812;9.112;2023-02-13T08:12:43;0.80;99.90
6810;DHT22;3443;48.812;9.112;2023-02-13T08:15:13;1.00;99.90
6810;DHT22;3443;48.812;9.112;2023-02-13T08:17:39;1.10;99.90
6810;DHT22;3443;48.812;9.112;2023-02-13T08:20:06;1.30;99.90
6810;DHT22;3443;48.812;9.112;2023-02-13T08:22:33;1.40;99.90
6810;DHT22;3443;48.812;9.112;2023-02-13T08:24:58;1.50;99.90
6810;DHT22;3443;48.812;9.112;2023-02-13T08:27:24;1.70;99.90
6810;DHT22;3443;48.812;9.112;2023-02-13T08:29:50;1.80;99.90
6810;DHT22;3443;48.812;9.112;2023-02-13T08:32:16;2.00;99.90
6810;DHT22;3443;48.812;9.112;2023-02-13T08:34:42;2.20;99.90
6810;DHT22;3443;48.812;9.112;2023-02-13T08:37:07;2.40;99.90
6810;DHT22;3443;48.812;9.112;2023-02-13T08:39:33;2.60;99.90
6810;DHT22;3443;48.812;9.112;2023-02-13T08:41:59;2.80;99.90
6810;DHT22;3443;48.812;9.112;2023-02-13T08:44:24;2.90;99.90
6810;DHT22;3443;48.812;9.112;2023-02-13T08:46:50;3.00;99.90
6810;DHT22;3443;48.812;9.112;2023-02-13T08:49:16;3.20;99.90
6810;DHT22;3443;48.812;9.112;2023-02-13T08:51:42;3.40;99.90
6810;DHT22;3443;48.812;9.112;2023-02-13T08:54:07;3.60;99.90
6810;DHT22;3443;48.812;9.112;2023-02-13T08:56:33;3.70;99.90
6810;DHT22;3443;48.812;9.112;2023-02-13T08:58:59;3.90;99.90
6810;DHT22;3443;48.812;9.112;2023-02-13T09:01:25;4.00;99.90
6810;DHT22;3443;48.812;9.112;2023-02-13T09:03:50;4.10;99.90
6810;DHT22;3443;48.812;9.112;2023-02-13T09:06:16;4.20;99.90
6810;DHT22;3443;48.812;9.112;2023-02-13T09:08:42;4.40;99.90
6810;DHT22;3443;48.812;9.112;2023-02-13T09:11:08;4.40;99.90
6810;DHT22;3443;48.812;9.112;2023-02-13T09:13:34;4.50;99.90
6810;DHT22;3443;48.812;9.112;2023-02-13T09:16:03;4.60;99.90
6810;DHT22;3443;48.812;9.112;2023-02-13T09:18:29;4.70;99.90
6810;DHT22;3443;48.812;9.112;2023-02-13T09:21:03;4.80;99.90
6810;DHT22;3443;48.812;9.112;2023-02-13T09:23:34;5.00;99.90
6810;DHT22;3443;48.812;9.112;2023-02-13T09:26:02;5.10;99.90
6810;DHT22;3443;48.812;9.112;2023-02-13T09:28:32;5.20;99.90
6810;DHT22;3443;48.812;9.112;2023-02-13T09:30:58;5.20;99.90
6810;DHT22;3443;48.812;9.112;2023-02-13T09:33:25;5.20;99.90
6810;DHT22;3443;48.812;9.112;2023-02-13T09:35:51;5.20;99.90
6810;DHT22;3443;48.812;9.112;2023-02-13T09:38:17;5.20;99.90
6810;DHT22;3443;48.812;9.112;2023-02-13T09:40:55;5.30;99.90
6810;DHT22;3443;48.812;9.112;2023-02-13T09:43:28;5.40;99.90
6810;DHT22;3443;48.812;9.112;2023-02-13T09:45:58;5.50;99.90
6810;DHT22;3443;48.812;9.112;2023-02-13T09:48:31;5.50;99.90
6810;DHT22;3443;48.812;9.112;2023-02-13T09:50:57;5.60;99.90
6810;DHT22;3443;48.812;9.112;2023-02-13T09:53:26;5.50;99.90
6810;DHT22;3443;48.812;9.112;2023-02-13T09:57:13;5.60;99.90
6810;DHT22;3443;48.812;9.112;2023-02-13T10:01:48;5.70;99.90
6810;DHT22;3443;48.812;9.112;2023-02-13T10:04:28;5.70;99.90
6810;DHT22;3443;48.812;9.112;2023-02-13T10:10:01;5.80;99.90
6810;DHT22;3443;48.812;9.112;2023-02-13T10:15:18;5.80;99.90
6810;DHT22;3443;48.812;9.112;2023-02-13T10:17:49;5.70;99.90
6810;DHT22;3443;48.812;9.112;2023-02-13T10:20:31;5.80;99.90
6810;DHT22;3443;48.812;9.112;2023-02-13T10:23:11;5.90;99.90
6810;DHT22;3443;48.812;9.112;2023-02-13T10:26:19;5.90;99.90
6810;DHT22;3443;48.812;9.112;2023-02-13T10:28:56;6.00;99.90
6810;DHT22;3443;48.812;9.112;2023-02-13T10:31:44;6.00;99.90
6810;DHT22;3443;48.812;9.112;2023-02-13T10:34:15;5.90;99.90
6810;DHT22;3443;48.812;9.112;2023-02-13T10:36:44;6.00;99.90
6810;DHT22;3443;48.812;9.112;2023-02-13T10:55:47;6.30;99.90
6810;DHT22;3443;48.812;9.112;2023-02-13T11:03:21;6.50;99.90
6810;DHT22;3443;48.812;9.112;2023-02-13T11:05:48;6.60;99.90
6810;DHT22;3443;48.812;9.112;2023-02-13T11:08:21;6.60;99.90
6810;DHT22;3443;48.812;9.112;2023-02-13T11:10:48;6.60;99.90
6810;DHT22;3443;48.812;9.112;2023-02-13T11:13:25;6.60;99.90
6810;DHT22;3443;48.812;9.112;2023-02-13T11:16:04;6.70;99.90
6810;DHT22;3443;48.812;9.112;2023-02-13T11:18:36;6.70;99.90
6810;DHT22;3443;48.812;9.112;2023-02-13T11:23:51;6.80;99.90
6810;DHT22;3443;48.812;9.112;2023-02-13T11:26:34;6.70;99.90
6810;DHT22;3443;48.812;9.112;2023-02-13T11:29:05;6.70;99.90
6810;DHT22;3443;48.812;9.112;2023-02-13T11:31:39;6.80;99.90
6810;DHT22;3443;48.812;9.112;2023-02-13T11:34:26;6.90;99.90
6810;DHT22;3443;48.812;9.112;2023-02-13T11:39:38;7.00;99.90
6810;DHT22;3443;48.812;9.112;2023-02-13T11:44:41;7.10;99.90
6810;DHT22;3443;48.812;9.112;2023-02-13T11:47:07;7.20;99.90
6810;DHT22;3443;48.812;9.112;2023-02-13T11:49:35;7.30;99.90
6810;DHT22;3443;48.812;9.112;2023-02-13T11:52:06;7.40;99.90
6810;DHT22;3443;48.812;9.112;2023-02-13T11:57:19;7.40;99.90
6810;DHT22;3443;48.812;9.112;2023-02-13T11:59:46;7.40;99.90
6810;DHT22;3443;48.812;9.112;2023-02-13T12:02:26;7.50;99.90
6810;DHT22;3443;48.812;9.112;2023-02-13T12:04:54;7.50;99.90
6810;DHT22;3443;48.812;9.112;2023-02-13T12:07:29;7.50;99.90
6810;DHT22;3443;48.812;9.112;2023-02-13T12:10:11;7.60;99.90
6810;DHT22;3443;48.812;9.112;2023-02-13T12:15:32;7.70;99.90
6810;DHT22;3443;48.812;9.112;2023-02-13T12:23:36;7.90;99.90
6810;DHT22;3443;48.812;9.112;2023-02-13T12:29:19;8.10;99.90
6810;DHT22;3443;48.812;9.112;2023-02-13T12:39:50;8.40;99.90
6810;DHT22;3443;48.812;9.112;2023-02-13T12:45:12;8.50;99.90
6810;DHT22;3443;48.812;9.112;2023-02-13T12:50:28;8.50;99.90
6810;DHT22;3443;48.812;9.112;2023-02-13T12:53:11;8.50;99.90
6810;DHT22;3443;48.812;9.112;2023-02-13T12:55:49;8.50;99.90
6810;DHT22;3443;48.812;9.112;2023-02-13T13:03:53;8.60;99.90
6810;DHT22;3443;48.812;9.112;2023-02-13T13:17:39;8.70;99.90
6810;DHT22;3443;48.812;9.112;2023-02-13T13:20:39;8.70;99.90
6810;DHT22;3443;48.812;9.112;2023-02-13T13:28:14;8.80;99.90
6810;DHT22;3443;48.812;9.112;2023-02-13T13:30:41;8.80;99.90
6810;DHT22;3443;48.812;9.112;2023-02-13T13:33:21;8.70;99.90
6810;DHT22;3443;48.812;9.112;2023-02-13T13:44:40;9.20;99.90
6810;DHT22;3443;48.812;9.112;2023-02-13T13:50:00;9.40;99.90
6810;DHT22;3443;48.812;9.112;2023-02-13T13:54:56;9.30;99.90
6810;DHT22;3443;48.812;9.112;2023-02-13T14:07:54;9.10;99.90
6810;DHT22;3443;48.812;9.112;2023-02-13T14:25:42;9.30;99.90
6810;DHT22;3443;48.812;9.112;2023-02-13T14:28:19;9.30;99.90
6810;DHT22;3443;48.812;9.112;2023-02-13T14:30:45;9.10;99.90
6810;DHT22;3443;48.812;9.112;2023-02-13T14:33:29;9.10;99.90
6810;DHT22;3443;48.812;9.112;2023-02-13T14:36:06;9.10;99.90
6810;DHT22;3443;48.812;9.112;2023-02-13T14:38:33;9.00;99.90
6810;DHT22;3443;48.812;9.112;2023-02-13T14:41:00;9.00;99.90
6810;DHT22;3443;48.812;9.112;2023-02-13T14:44:08;8.90;99.90
6810;DHT22;3443;48.812;9.112;2023-02-13T14:46:36;8.90;99.90
6810;DHT22;3443;48.812;9.112;2023-02-13T14:49:29;8.90;99.90
6810;DHT22;3443;48.812;9.112;2023-02-13T14:52:01;8.90;99.90
6810;DHT22;3443;48.812;9.112;2023-02-13T14:54:38;8.90;99.90
6810;DHT22;3443;48.812;9.112;2023-02-13T14:57:18;8.80;99.90
6810;DHT22;3443;48.812;9.112;2023-02-13T14:59:50;8.80;99.90
6810;DHT22;3443;48.812;9.112;2023-02-13T15:02:26;8.80;99.90
6810;DHT22;3443;48.812;9.112;2023-02-13T15:07:26;8.60;99.90
6810;DHT22;3443;48.812;9.112;2023-02-13T15:10:22;8.60;99.90
6810;DHT22;3443;48.812;9.112;2023-02-13T15:12:59;8.60;99.90
6810;DHT22;3443;48.812;9.112;2023-02-13T15:15:28;8.50;99.90
6810;DHT22;3443;48.812;9.112;2023-02-13T15:18:07;8.50;99.90
6810;DHT22;3443;48.812;9.112;2023-02-13T15:20:36;8.50;99.90
6810;DHT22;3443;48.812;9.112;2023-02-13T15:23:02;8.40;99.90
6810;DHT22;3443;48.812;9.112;2023-02-13T15:27:59;8.30;99.90
6810;DHT22;3443;48.812;9.112;2023-02-13T15:30:28;8.20;99.90
6810;DHT22;3443;48.812;9.112;2023-02-13T15:33:00;8.20;99.90
6810;DHT22;3443;48.812;9.112;2023-02-13T15:35:32;8.10;99.90
6810;DHT22;3443;48.812;9.112;2023-02-13T15:37:59;8.10;99.90
6810;DHT22;3443;48.812;9.112;2023-02-13T15:40:31;8.00;99.90
6810;DHT22;3443;48.812;9.112;2023-02-13T15:42:58;8.00;99.90
6810;DHT22;3443;48.812;9.112;2023-02-13T15:45:26;7.90;99.90
6810;DHT22;3443;48.812;9.112;2023-02-13T15:47:53;7.80;99.90
6810;DHT22;3443;48.812;9.112;2023-02-13T15:50:34;7.90;99.90
6810;DHT22;3443;48.812;9.112;2023-02-13T15:53:03;7.80;99.90
6810;DHT22;3443;48.812;9.112;2023-02-13T15:55:31;7.70;99.90
6810;DHT22;3443;48.812;9.112;2023-02-13T15:57:59;7.70;99.90
6810;DHT22;3443;48.812;9.112;2023-02-13T16:00:28;7.50;99.90
6810;DHT22;3443;48.812;9.112;2023-02-13T16:02:56;7.50;99.90
6810;DHT22;3443;48.812;9.112;2023-02-13T16:05:23;7.40;99.90
6810;DHT22;3443;48.812;9.112;2023-02-13T16:07:52;7.30;99.90
6810;DHT22;3443;48.812;9.112;2023-02-13T16:10:33;7.30;99.90
6810;DHT22;3443;48.812;9.112;2023-02-13T16:13:03;7.30;99.90
6810;DHT22;3443;48.812;9.112;2023-02-13T16:15:32;7.20;99.90
6810;DHT22;3443;48.812;9.112;2023-02-13T16:17:58;7.10;99.90
6810;DHT22;3443;48.812;9.112;2023-02-13T16:20:28;7.00;99.90
6810;DHT22;3443;48.812;9.112;2023-02-13T16:22:57;6.90;99.90
6810;DHT22;3443;48.812;9.112;2023-02-13T16:25:35;6.90;99.90
6810;DHT22;3443;48.812;9.112;2023-02-13T16:28:22;6.80;99.90
6810;DHT22;3443;48.812;9.112;2023-02-13T16:30:58;6.70;99.90
6810;DHT22;3443;48.812;9.112;2023-02-13T16:33:34;6.60;99.90
6810;DHT22;3443;48.812;9.112;2023-02-13T16:41:30;6.20;99.90
6810;DHT22;3443;48.812;9.112;2023-02-13T16:44:00;6.10;99.90
6810;DHT22;3443;48.812;9.112;2023-02-13T17:02:32;5.50;99.90
6810;DHT22;3443;48.812;9.112;2023-02-13T17:07:47;5.40;99.90
6810;DHT22;3443;48.812;9.112;2023-02-13T17:10:23;5.30;99.90
6810;DHT22;3443;48.812;9.112;2023-02-13T17:12:53;5.20;99.90
6810;DHT22;3443;48.812;9.112;2023-02-13T17:15:21;5.10;99.90
6810;DHT22;3443;48.812;9.112;2023-02-13T17:17:48;5.20;99.90
6810;DHT22;3443;48.812;9.112;2023-02-13T17:20:23;5.00;99.90
6810;DHT22;3443;48.812;9.112;2023-02-13T17:22:51;5.00;99.90
6810;DHT22;3443;48.812;9.112;2023-02-13T17:25:20;5.00;99.90
6810;DHT22;3443;48.812;9.112;2023-02-13T17:27:49;4.90;99.90
6810;DHT22;3443;48.812;9.112;2023-02-13T17:30:17;4.90;99.90
6810;DHT22;3443;48.812;9.112;2023-02-13T17:32:44;4.80;99.90
6810;DHT22;3443;48.812;9.112;2023-02-13T17:35:11;4.60;99.90
6810;DHT22;3443;48.812;9.112;2023-02-13T17:37:37;4.60;99.90
6810;DHT22;3443;48.812;9.112;2023-02-13T17:40:04;4.50;99.90
6810;DHT22;3443;48.812;9.112;2023-02-13T17:42:30;4.50;99.90
6810;DHT22;3443;48.812;9.112;2023-02-13T17:44:57;4.40;99.90
6810;DHT22;3443;48.812;9.112;2023-02-13T17:47:24;4.30;99.90
6810;DHT22;3443;48.812;9.112;2023-02-13T17:49:50;4.30;99.90
6810;DHT22;3443;48.812;9.112;2023-02-13T17:52:19;4.30;99.90
6810;DHT22;3443;48.812;9.112;2023-02-13T17:54:46;4.20;99.90
6810;DHT22;3443;48.812;9.112;2023-02-13T17:57:15;4.30;99.90
6810;DHT22;3443;48.812;9.112;2023-02-13T17:59:41;4.20;99.90
6810;DHT22;3443;48.812;9.112;2023-02-13T18:02:19;4.20;99.90
6810;DHT22;3443;48.812;9.112;2023-02-13T18:04:45;4.10;99.90
6810;DHT22;3443;48.812;9.112;2023-02-13T18:07:12;4.00;99.90
6810;DHT22;3443;48.812;9.112;2023-02-13T18:09:38;3.90;99.90
6810;DHT22;3443;48.812;9.112;2023-02-13T18:12:05;3.90;99.90
6810;DHT22;3443;48.812;9.112;2023-02-13T18:14:32;3.80;99.90
6810;DHT22;3443;48.812;9.112;2023-02-13T18:16:58;3.80;99.90
6810;DHT22;3443;48.812;9.112;2023-02-13T18:19:27;3.80;99.90
6810;DHT22;3443;48.812;9.112;2023-02-13T18:21:52;3.70;99.90
6810;DHT22;3443;48.812;9.112;2023-02-13T18:24:18;3.70;99.90
6810;DHT22;3443;48.812;9.112;2023-02-13T18:26:44;3.60;99.90
6810;DHT22;3443;48.812;9.112;2023-02-13T18:29:09;3.60;99.90
6810;DHT22;3443;48.812;9.112;2023-02-13T18:31:35;3.60;99.90
6810;DHT22;3443;48.812;9.112;2023-02-13T18:34:00;3.60;99.90
6810;DHT22;3443;48.812;9.112;2023-02-13T18:36:26;3.50;99.90
6810;DHT22;3443;48.812;9.112;2023-02-13T18:38:52;3.50;99.90
6810;DHT22;3443;48.812;9.112;2023-02-13T18:41:18;3.40;99.90
6810;DHT22;3443;48.812;9.112;2023-02-13T18:43:44;3.40;99.90
6810;DHT22;3443;48.812;9.112;2023-02-13T18:46:10;3.40;99.90
6810;DHT22;3443;48.812;9.112;2023-02-13T18:48:35;3.40;99.90
6810;DHT22;3443;48.812;9.112;2023-02-13T18:51:01;3.40;99.90
6810;DHT22;3443;48.812;9.112;2023-02-13T18:53:28;3.30;99.90
6810;DHT22;3443;48.812;9.112;2023-02-13T18:56:04;3.20;99.90
6810;DHT22;3443;48.812;9.112;2023-02-13T18:58:30;3.20;99.90
6810;DHT22;3443;48.812;9.112;2023-02-13T19:01:03;3.20;99.90
6810;DHT22;3443;48.812;9.112;2023-02-13T19:03:28;3.10;99.90
6810;DHT22;3443;48.812;9.112;2023-02-13T19:05:54;3.10;99.90
6810;DHT22;3443;48.812;9.112;2023-02-13T19:08:19;3.10;99.90
6810;DHT22;3443;48.812;9.112;2023-02-13T19:10:45;3.10;99.90
6810;DHT22;3443;48.812;9.112;2023-02-13T19:13:11;3.00;99.90
6810;DHT22;3443;48.812;9.112;2023-02-13T19:15:36;3.00;99.90
6810;DHT22;3443;48.812;9.112;2023-02-13T19:18:02;2.90;99.90
6810;DHT22;3443;48.812;9.112;2023-02-13T19:20:28;2.90;99.90
6810;DHT22;3443;48.812;9.112;2023-02-13T19:22:53;2.90;99.90
6810;DHT22;3443;48.812;9.112;2023-02-13T19:25:19;2.90;99.90
6810;DHT22;3443;48.812;9.112;2023-02-13T19:27:46;2.80;99.90
6810;DHT22;3443;48.812;9.112;2023-02-13T19:30:12;2.80;99.90
6810;DHT22;3443;48.812;9.112;2023-02-13T19:32:38;2.70;99.90
6810;DHT22;3443;48.812;9.112;2023-02-13T19:35:04;2.70;99.90
6810;DHT22;3443;48.812;9.112;2023-02-13T19:37:29;2.60;99.90
6810;DHT22;3443;48.812;9.112;2023-02-13T19:39:55;2.60;99.90
6810;DHT22;3443;48.812;9.112;2023-02-13T19:42:20;2.60;99.90
6810;DHT22;3443;48.812;9.112;2023-02-13T19:44:46;2.60;99.90